Time;durP1;ratioP1;P1;durP2;ratioP2;P2;SDS_P1;SDS_P2;PMS_P1;PMS_P2;Temp;Humidity;BMP_temperature;BMP_pressure;BME280_temperature;BME280_humidity;BME280_pressure;Samples;Min_cycle;Max_cycle;Signal;HPM_P1;HPM_P2
2023/09/22 05:36:03;;;;;;;24.60;7.97;;;;;;;18.29;100.00;97924.94;4494623;31;143485;-75
2023/09/22 05:38:30;;;;;;;19.40;6.78;;;;;;;18.29;100.00;97924.94;4509496;31;20091;-74
2023/09/22 05:40:58;;;;;;;18.62;7.60;;;;;;;18.14;100.00;97921.66;4511235;31;20095;-75
2023/09/22 05:43:27;;;;;;;24.25;8.05;;;;;;;18.30;100.00;97928.37;4508529;31;20092;-75
2023/09/22 05:45:56;;;;;;;16.80;8.63;;;;;;;18.45;100.00;97931.59;4509505;31;20812;-74
2023/09/22 05:48:27;;;;;;;20.62;7.03;;;;;;;18.56;100.00;97930.97;4504752;31;20114;-75
2023/09/22 05:50:56;;;;;;;18.30;7.05;;;;;;;18.69;100.00;97926.63;4518641;31;20415;-75
2023/09/22 05:53:25;;;;;;;31.52;8.10;;;;;;;18.82;100.00;97929.25;4508591;31;20551;-75
2023/09/22 05:56:06;;;;;;;24.60;7.47;;;;;;;18.81;100.00;97924.94;4500848;31;20107;-77
2023/09/22 05:58:35;;;;;;;22.65;7.30;;;;;;;19.04;100.00;97936.91;4504322;31;20153;-77
2023/09/22 06:01:10;;;;;;;23.70;6.75;;;;;;;19.26;100.00;97937.44;4502492;31;20092;-76
2023/09/22 06:03:40;;;;;;;21.37;8.27;;;;;;;19.49;100.00;97947.47;4495645;31;20130;-74
2023/09/22 06:06:09;;;;;;;18.60;6.72;;;;;;;19.69;100.00;97948.13;4496483;31;20754;-76
2023/09/22 06:08:45;;;;;;;15.05;7.20;;;;;;;20.00;100.00;97951.81;4497569;31;20092;-74
2023/09/22 06:11:14;;;;;;;18.50;5.90;;;;;;;20.17;100.00;97953.94;4495648;31;20118;-77
2023/09/22 06:13:42;;;;;;;10.18;6.05;;;;;;;20.20;100.00;97956.16;4493283;31;20152;-76
2023/09/22 06:16:10;;;;;;;13.32;5.30;;;;;;;20.60;100.00;97950.41;4494788;31;20484;-78
2023/09/22 06:18:39;;;;;;;10.40;5.75;;;;;;;20.77;100.00;97953.28;4495316;31;20900;-77
2023/09/22 06:21:10;;;;;;;16.45;5.45;;;;;;;20.90;100.00;97958.47;4498168;31;20152;-75
2023/09/22 06:23:40;;;;;;;12.18;6.00;;;;;;;20.70;100.00;97961.38;4495942;31;20151;-74
2023/09/22 06:26:10;;;;;;;17.77;6.20;;;;;;;20.51;100.00;97960.50;4494991;31;20126;-75
2023/09/22 06:28:38;;;;;;;10.30;5.25;;;;;;;20.63;100.00;97965.13;4497597;31;20180;-74
2023/09/22 06:31:07;;;;;;;15.43;6.00;;;;;;;20.46;100.00;97957.72;4494761;31;20126;-74
2023/09/22 06:33:35;;;;;;;11.00;5.70;;;;;;;20.35;100.00;97971.75;4497206;31;20472;-75
2023/09/22 06:36:05;;;;;;;11.18;6.55;;;;;;;20.28;100.00;97971.00;4503462;31;20121;-74
2023/09/22 06:38:33;;;;;;;12.88;6.35;;;;;;;20.10;100.00;97969.91;4493740;31;20100;-74
2023/09/22 06:41:04;;;;;;;13.85;6.37;;;;;;;20.29;100.00;97973.44;4501178;31;20177;-76
2023/09/22 06:43:36;;;;;;;13.77;5.95;;;;;;;20.62;100.00;97974.13;4496896;31;20469;-76
2023/09/22 06:46:22;;;;;;;25.10;6.15;;;;;;;20.79;100.00;97977.03;4492762;31;20103;-77
2023/09/22 06:48:50;;;;;;;12.05;5.62;;;;;;;21.04;100.00;97976.94;4486217;31;20123;-76
2023/09/22 06:51:18;;;;;;;21.65;6.35;;;;;;;20.84;100.00;97974.53;4486270;31;20409;-76
2023/09/22 06:53:47;;;;;;;16.55;5.45;;;;;;;20.94;100.00;97985.47;4487049;31;20417;-77
2023/09/22 06:56:18;;;;;;;10.77;5.55;;;;;;;20.97;100.00;97978.88;4487444;31;20150;-75
2023/09/22 06:58:47;;;;;;;12.48;5.18;;;;;;;21.07;100.00;97980.00;4487572;31;20606;-76
2023/09/22 07:01:16;;;;;;;13.27;5.32;;;;;;;21.22;100.00;97976.09;4486692;31;20100;-75
2023/09/22 07:03:46;;;;;;;14.10;5.12;;;;;;;21.26;100.00;97982.59;4484704;31;20164;-78
2023/09/22 07:06:18;;;;;;;9.70;4.72;;;;;;;21.62;100.00;97987.03;4482657;31;20092;-76
2023/09/22 07:08:46;;;;;;;10.30;5.22;;;;;;;21.83;100.00;97992.06;4485299;31;20096;-77
2023/09/22 07:11:18;;;;;;;12.27;4.37;;;;;;;22.13;100.00;97992.00;4486051;31;20109;-75
2023/09/22 07:13:46;;;;;;;13.45;4.03;;;;;;;22.48;100.00;97991.19;4489935;31;20116;-78
2023/09/22 07:16:13;;;;;;;14.90;4.18;;;;;;;22.81;100.00;98003.13;4491673;31;20100;-77
2023/09/22 07:18:40;;;;;;;14.23;4.18;;;;;;;22.87;100.00;98000.31;4487235;31;20164;-79
2023/09/22 07:21:11;;;;;;;15.43;4.35;;;;;;;22.95;100.00;97998.31;4489979;31;20095;-75
2023/09/22 07:23:38;;;;;;;6.95;3.45;;;;;;;22.97;100.00;97996.25;4487592;31;20100;-75
2023/09/22 07:26:09;;;;;;;15.70;4.87;;;;;;;23.05;95.21;97995.87;4488132;31;20809;-76
2023/09/22 07:28:37;;;;;;;10.18;3.97;;;;;;;23.08;97.53;97995.38;4488212;31;20496;-78
2023/09/22 07:31:15;;;;;;;17.40;4.35;;;;;;;22.56;99.91;97998.88;4489868;31;20096;-78
2023/09/22 07:33:43;;;;;;;16.98;4.40;;;;;;;22.75;100.00;97996.84;4490764;31;20103;-79
2023/09/22 07:36:11;;;;;;;13.30;3.83;;;;;;;22.74;100.00;98000.59;4487633;31;20171;-79
2023/09/22 07:38:40;;;;;;;19.60;4.45;;;;;;;22.76;100.00;98003.81;4491015;31;20159;-74
2023/09/22 07:41:09;;;;;;;18.45;5.15;;;;;;;22.93;100.00;98008.44;4490314;31;20097;-75
2023/09/22 07:43:38;;;;;;;16.00;4.78;;;;;;;23.25;100.00;98013.38;4489105;31;20115;-78
2023/09/22 07:46:07;;;;;;;14.73;4.65;;;;;;;23.78;98.09;98022.09;4488875;31;20171;-76
2023/09/22 07:48:36;;;;;;;13.07;4.60;;;;;;;23.82;95.94;98024.03;4487271;31;20118;-76
2023/09/22 07:51:04;;;;;;;13.13;4.72;;;;;;;23.42;96.82;98019.56;4488968;31;20131;-76
2023/09/22 07:53:33;;;;;;;11.20;5.05;;;;;;;23.42;97.12;98024.91;4485373;31;20175;-76
2023/09/22 07:56:00;;;;;;;12.75;4.68;;;;;;;23.18;98.46;98021.50;4491989;31;20104;-76
2023/09/22 07:58:28;;;;;;;9.32;4.82;;;;;;;22.66;100.00;98022.28;4487885;31;20498;-75
2023/09/22 08:00:58;;;;;;;14.05;4.40;;;;;;;22.58;100.00;98020.00;4482428;31;20970;-74
2023/09/22 08:03:29;;;;;;;10.60;4.15;;;;;;;23.04;100.00;98023.62;4488898;31;20155;-75
2023/09/22 08:05:56;;;;;;;10.80;5.18;;;;;;;23.41;97.74;98023.31;4487644;31;20874;-74
2023/09/22 08:08:26;;;;;;;11.80;4.82;;;;;;;23.42;97.15;98016.88;4486111;31;20128;-75
2023/09/22 08:10:55;;;;;;;18.37;4.22;;;;;;;23.35;97.76;98024.25;4487064;31;20881;-75
2023/09/22 08:13:23;;;;;;;13.95;4.37;;;;;;;23.50;96.32;98031.75;4487619;31;20104;-75
2023/09/22 08:15:53;;;;;;;16.70;4.45;;;;;;;23.71;93.08;98030.28;4484913;31;20163;-73
2023/09/22 08:18:20;;;;;;;14.45;4.55;;;;;;;23.92;92.72;98029.59;4485796;31;20099;-75
2023/09/22 08:20:48;;;;;;;12.20;4.28;;;;;;;24.07;90.58;98030.88;4484531;31;20105;-75
2023/09/22 08:23:15;;;;;;;16.15;4.22;;;;;;;24.19;90.37;98030.81;4485891;31;20134;-74
2023/09/22 08:25:43;;;;;;;10.48;5.00;;;;;;;24.39;89.02;98038.34;4485341;31;20116;-75
2023/09/22 08:28:14;;;;;;;11.25;4.68;;;;;;;24.44;87.84;98035.75;4487609;31;20087;-74
2023/09/22 08:30:44;;;;;;;12.80;4.10;;;;;;;24.47;88.28;98040.63;4486817;31;20104;-74
2023/09/22 08:33:12;;;;;;;13.73;3.95;;;;;;;24.42;87.70;98041.34;4485754;31;20116;-74
2023/09/22 08:35:41;;;;;;;15.00;5.28;;;;;;;24.68;88.13;98043.59;4485333;31;20503;-75
2023/09/22 08:38:31;;;;;;;12.02;4.07;;;;;;;25.22;85.75;98037.59;4486287;31;20096;-77
2023/09/22 08:41:03;;;;;;;13.15;4.50;;;;;;;25.22;86.02;98029.53;4490710;31;20149;-76
2023/09/22 08:43:32;;;;;;;11.48;4.25;;;;;;;25.36;85.92;98032.69;4486392;31;20092;-77
2023/09/22 08:46:00;;;;;;;13.13;4.25;;;;;;;25.72;88.14;98035.72;4485321;31;20097;-77
2023/09/22 08:48:28;;;;;;;18.20;4.37;;;;;;;26.11;82.19;98032.88;4484165;31;20168;-77
2023/09/22 08:50:55;;;;;;;12.37;4.00;;;;;;;26.72;80.92;98027.94;4486975;31;20152;-77
2023/09/22 08:53:22;;;;;;;10.27;4.00;;;;;;;26.57;78.67;98038.56;4488272;31;20122;-77
2023/09/22 08:55:50;;;;;;;13.00;3.53;;;;;;;26.08;81.18;98036.09;4487128;31;20571;-74
2023/09/22 08:58:18;;;;;;;13.85;3.60;;;;;;;26.31;76.45;98042.97;4484927;31;20088;-75
2023/09/22 09:00:51;;;;;;;9.63;2.92;;;;;;;26.49;76.40;98047.13;4493454;31;20468;-75
2023/09/22 09:03:20;;;;;;;7.93;2.83;;;;;;;26.42;72.86;98035.78;4485870;31;20088;-75
2023/09/22 09:05:49;;;;;;;18.35;3.22;;;;;;;26.51;71.83;98039.59;4487740;31;20138;-75
2023/09/22 09:08:19;;;;;;;17.45;3.10;;;;;;;26.75;70.64;98037.34;4487776;31;20088;-75
2023/09/22 09:10:48;;;;;;;11.18;3.72;;;;;;;27.24;69.37;98028.16;4484023;31;20104;-74
2023/09/22 09:13:17;;;;;;;17.80;3.10;;;;;;;27.39;69.06;98022.03;4486077;31;20135;-74
2023/09/22 09:15:50;;;;;;;15.40;3.25;;;;;;;27.77;67.59;98028.03;4489361;31;20103;-76
2023/09/22 09:18:19;;;;;;;;;;;;;;;27.94;65.03;98033.97;4484432;31;20109;-75
2023/09/22 09:21:05;;;;;;;18.08;3.37;;;;;;;27.67;65.16;98026.13;4484440;31;20003;-76
2023/09/22 09:23:33;;;;;;;9.23;4.18;;;;;;;27.60;66.34;98022.88;4484179;31;20526;-75
2023/09/22 09:26:01;;;;;;;11.95;2.90;;;;;;;27.94;64.26;98019.72;4487410;31;20511;-75
2023/09/22 09:28:29;;;;;;;15.25;3.25;;;;;;;27.99;64.57;98018.94;4485115;31;20318;-75
2023/09/22 09:31:00;;;;;;;19.58;3.60;;;;;;;27.94;64.57;98017.00;4486633;31;20807;-75
2023/09/22 09:33:31;;;;;;;10.88;3.47;;;;;;;28.00;64.32;98015.97;4483231;31;20131;-73
2023/09/22 09:36:15;;;;;;;11.15;3.17;;;;;;;28.03;63.31;98009.25;4491992;31;20554;-75
2023/09/22 09:38:45;;;;;;;16.42;3.80;;;;;;;28.11;64.37;98003.31;4487102;31;20220;-76
2023/09/22 09:41:15;;;;;;;18.00;3.67;;;;;;;28.00;64.51;98002.50;4485323;31;20111;-74
2023/09/22 09:43:44;;;;;;;13.43;3.37;;;;;;;27.97;64.64;98000.34;4481692;31;20596;-76
2023/09/22 09:46:16;;;;;;;9.45;3.00;;;;;;;28.11;64.46;97997.91;4484310;31;20554;-75
2023/09/22 09:48:45;;;;;;;21.40;3.85;;;;;;;28.54;64.50;97992.19;4482734;31;20079;-76
2023/09/22 09:51:14;;;;;;;13.55;3.05;;;;;;;28.95;63.10;97995.59;4487491;31;20100;-77
2023/09/22 09:53:43;;;;;;;20.65;3.62;;;;;;;29.40;59.35;97994.84;4482311;31;20095;-76
2023/09/22 09:56:17;;;;;;;13.10;3.40;;;;;;;29.04;59.46;97998.50;4485131;31;20477;-78
2023/09/22 09:58:48;;;;;;;7.60;2.92;;;;;;;28.70;60.64;97996.47;4486133;31;20124;-78
2023/09/22 10:01:19;;;;;;;13.77;2.80;;;;;;;28.48;61.58;97997.59;4481842;31;20367;-76
2023/09/22 10:03:48;;;;;;;12.30;4.15;;;;;;;28.43;60.90;97991.41;4488591;31;20150;-75
2023/09/22 10:06:17;;;;;;;16.12;3.00;;;;;;;28.73;62.42;97987.03;4485645;31;20104;-77
2023/09/22 10:08:46;;;;;;;8.15;2.65;;;;;;;29.22;60.15;97985.50;4496651;31;20584;-77
2023/09/22 10:11:14;;;;;;;10.50;2.95;;;;;;;29.49;58.53;97985.06;4497833;31;20088;-75
2023/09/22 10:13:43;;;;;;;15.43;2.72;;;;;;;29.77;57.86;97982.69;4494447;31;20175;-75
2023/09/22 10:16:11;;;;;;;10.77;2.97;;;;;;;30.02;57.08;97981.69;4496039;31;20104;-75
2023/09/22 10:18:47;;;;;;;12.40;3.47;;;;;;;30.05;55.73;97983.84;4497142;31;20118;-77
2023/09/22 10:21:36;;;;;;;13.02;2.50;;;;;;;29.89;54.96;97973.19;4497311;31;20112;-78
2023/09/22 10:24:13;;;;;;;9.35;2.60;;;;;;;29.71;55.12;97974.63;4496438;31;20146;-76
2023/09/22 10:26:55;;;;;;;8.10;3.28;;;;;;;29.85;54.81;97982.91;4496393;31;20885;-73
2023/09/22 10:29:32;;;;;;;14.05;2.85;;;;;;;29.82;55.05;97971.88;4499115;31;20151;-73
2023/09/22 10:32:16;;;;;;;11.23;2.70;;;;;;;29.73;55.26;97971.66;4501686;31;20071;-74
2023/09/22 10:34:57;;;;;;;15.30;2.90;;;;;;;29.71;55.33;97958.44;4499588;31;20100;-73
2023/09/22 10:37:29;;;;;;;9.75;2.28;;;;;;;29.56;57.13;97967.47;4499465;31;20157;-73
2023/09/22 10:40:26;;;;;;;12.90;2.90;;;;;;;30.02;55.31;97960.09;4499954;31;20114;-76
2023/09/22 10:42:54;;;;;;;10.85;2.60;;;;;;;30.02;52.50;97960.09;4435578;32;20192;-78
2023/09/22 10:45:28;;;;;;;9.75;2.55;;;;;;;29.83;54.46;97968.91;4434044;32;20109;-78
2023/09/22 10:47:59;;;;;;;8.25;2.83;;;;;;;29.90;52.91;97964.00;4431890;32;20144;-77
2023/09/22 10:50:31;;;;;;;14.10;2.95;;;;;;;29.85;53.59;97955.12;4434087;32;20098;-77
2023/09/22 10:53:00;;;;;;;10.10;2.20;;;;;;;29.90;53.00;97964.00;4430984;32;20113;-77
2023/09/22 10:55:35;;;;;;;12.57;2.60;;;;;;;30.27;52.99;97962.56;4428447;32;20105;-77
2023/09/22 10:58:12;;;;;;;11.95;2.22;;;;;;;30.64;51.40;97962.19;4425073;32;20651;-77
2023/09/22 11:00:44;;;;;;;13.15;3.33;;;;;;;30.54;50.28;97960.41;4430770;32;20141;-77
2023/09/22 11:03:14;;;;;;;14.40;2.47;;;;;;;30.55;50.93;97954.69;4419701;32;20093;-78
2023/09/22 11:05:43;;;;;;;10.23;2.72;;;;;;;30.38;49.16;97951.63;4432810;32;20113;-78
2023/09/22 11:08:16;;;;;;;9.02;2.50;;;;;;;30.53;49.91;97946.09;4431900;32;20119;-78
2023/09/22 11:10:47;;;;;;;6.87;2.55;;;;;;;30.66;48.60;97957.28;4427437;32;20178;-79
2023/09/22 11:13:15;;;;;;;9.40;2.47;;;;;;;30.47;48.52;97949.94;4427076;32;20149;-78
2023/09/22 11:15:54;;;;;;;10.57;2.78;;;;;;;30.50;48.82;97949.38;4430236;32;20110;-78
2023/09/22 11:18:26;;;;;;;7.53;2.80;;;;;;;30.83;48.02;97946.81;4426955;31;20101;-78
2023/09/22 11:21:13;;;;;;;10.95;2.83;;;;;;;30.83;47.44;97954.12;4498193;31;20091;-77
2023/09/22 11:23:40;;;;;;;7.40;2.50;;;;;;;30.78;46.77;97950.37;4496779;31;20096;-76
2023/09/22 11:26:10;;;;;;;9.45;2.37;;;;;;;30.57;49.37;97949.03;4501085;31;20216;-76
2023/09/22 11:28:43;;;;;;;14.07;3.05;;;;;;;30.77;49.11;97945.28;4507216;31;20100;-76
2023/09/22 11:31:18;;;;;;;8.80;2.72;;;;;;;31.00;48.35;97945.53;4500744;31;20134;-77
2023/09/22 11:33:58;;;;;;;13.13;4.97;;;;;;;31.01;47.34;97941.72;4501503;31;20163;-77
2023/09/22 11:36:26;;;;;;;10.05;2.70;;;;;;;30.92;47.89;97942.34;4500498;31;20123;-75
2023/09/22 11:38:54;;;;;;;10.55;2.65;;;;;;;30.95;45.99;97940.97;4489768;31;20462;-78
2023/09/22 11:41:22;;;;;;;14.48;3.33;;;;;;;30.79;47.21;97945.78;4499137;31;20100;-78
2023/09/22 11:43:54;;;;;;;13.02;2.87;;;;;;;30.71;47.26;97946.44;4500299;31;20980;-77
2023/09/22 11:46:22;;;;;;;11.20;2.58;;;;;;;30.71;48.00;97952.63;4509329;31;20092;-78
2023/09/22 11:49:12;;;;;;;15.23;2.90;;;;;;;30.82;47.08;97945.19;4499491;31;20122;-77
2023/09/22 11:51:56;;;;;;;16.45;4.55;;;;;;;30.40;48.49;97941.38;4489617;31;20486;-77
2023/09/22 11:54:24;;;;;;;13.30;3.25;;;;;;;30.52;49.57;97940.97;4500200;31;20230;-76
2023/09/22 11:56:56;;;;;;;12.57;2.55;;;;;;;30.60;47.12;97951.16;4502158;31;20149;-75
2023/09/22 11:59:37;;;;;;;7.47;2.15;;;;;;;30.54;47.00;97947.69;4495016;31;20607;-77
2023/09/22 12:02:04;;;;;;;10.13;3.05;;;;;;;30.75;47.16;97955.56;4497162;31;20088;-77
2023/09/22 12:04:37;;;;;;;12.25;3.17;;;;;;;30.80;47.62;97941.97;4499899;31;20526;-78
2023/09/22 12:07:06;;;;;;;13.82;3.22;;;;;;;30.78;48.22;97949.56;4496572;31;20146;-78
2023/09/22 12:09:34;;;;;;;11.48;2.50;;;;;;;30.59;46.21;97947.62;4498247;31;20153;-77
2023/09/22 12:12:03;;;;;;;9.30;2.60;;;;;;;30.85;46.38;97944.63;4494226;31;20105;-77
2023/09/22 12:14:30;;;;;;;5.97;2.50;;;;;;;30.86;46.18;97951.63;4496569;31;20100;-77
2023/09/22 12:16:57;;;;;;;9.68;2.65;;;;;;;30.66;45.81;97951.88;4501461;31;20107;-77
2023/09/22 12:19:26;;;;;;;10.68;2.42;;;;;;;30.79;46.29;97948.47;4497099;31;20104;-77
2023/09/22 12:21:56;;;;;;;10.75;2.53;;;;;;;30.54;47.75;97934.19;4495693;31;20171;-77
2023/09/22 12:24:23;;;;;;;7.80;2.33;;;;;;;30.60;45.06;97948.47;4495104;31;20092;-78
2023/09/22 12:26:51;;;;;;;11.32;2.95;;;;;;;30.50;45.82;97957.47;4497671;31;20095;-77
2023/09/22 12:29:19;;;;;;;6.22;2.50;;;;;;;30.26;45.85;97969.03;4505648;31;20095;-77
2023/09/22 12:31:46;;;;;;;8.50;2.40;;;;;;;29.91;45.33;97964.78;4499829;31;20084;-77
2023/09/22 12:34:17;;;;;;;9.07;2.47;;;;;;;29.71;46.18;97965.75;4499870;31;20101;-78
2023/09/22 12:36:44;;;;;;;7.87;2.85;;;;;;;29.75;46.91;97964.06;4498502;31;20091;-75
2023/09/22 12:39:15;;;;;;;10.20;2.33;;;;;;;29.95;47.86;97957.75;4497781;31;20116;-77
2023/09/22 12:41:43;;;;;;;10.73;3.40;;;;;;;30.45;48.20;97962.94;4488261;31;20629;-77
2023/09/22 12:44:10;;;;;;;12.77;2.78;;;;;;;30.61;45.82;97967.09;4504866;31;20096;-79
2023/09/22 12:46:37;;;;;;;10.75;3.22;;;;;;;30.57;45.74;97963.34;4505724;31;20126;-79
2023/09/22 12:49:04;;;;;;;9.63;2.83;;;;;;;30.36;45.85;97951.94;4500328;31;20092;-79
2023/09/22 12:51:34;;;;;;;12.50;2.87;;;;;;;30.49;46.82;97957.75;4498210;31;20600;-78
2023/09/22 12:54:02;;;;;;;10.63;2.83;;;;;;;30.65;46.75;97958.41;4498530;31;20362;-78
2023/09/22 12:56:29;;;;;;;10.95;3.12;;;;;;;30.42;46.38;97950.00;4496861;31;20099;-79
2023/09/22 12:58:56;;;;;;;11.35;2.85;;;;;;;30.49;47.17;97949.66;4500996;31;20138;-78
2023/09/22 13:01:24;;;;;;;8.23;2.70;;;;;;;30.55;47.43;97941.19;4494146;31;20845;-78
2023/09/22 13:03:52;;;;;;;10.00;2.60;;;;;;;30.37;47.76;97939.22;4497377;31;20401;-80
2023/09/22 13:06:19;;;;;;;14.02;2.80;;;;;;;30.30;48.33;97938.78;4498464;31;20226;-78
2023/09/22 13:08:46;;;;;;;13.73;2.80;;;;;;;30.48;47.98;97937.22;4495057;31;20461;-80
2023/09/22 13:11:16;;;;;;;9.10;3.00;;;;;;;30.57;45.97;97941.72;4492608;31;20110;-79
2023/09/22 13:13:45;;;;;;;7.25;2.85;;;;;;;30.51;46.89;97950.16;4494763;31;20111;-76
2023/09/22 13:16:13;;;;;;;9.18;2.72;;;;;;;30.31;46.84;97945.75;4491610;31;20100;-76
2023/09/22 13:18:44;;;;;;;16.10;3.83;;;;;;;30.33;47.92;97947.09;4491918;31;20085;-76
2023/09/22 13:21:12;;;;;;;4.93;2.42;;;;;;;30.44;48.21;97939.72;4491920;31;20543;-76
2023/09/22 13:23:41;;;;;;;9.55;2.50;;;;;;;30.79;45.39;97941.16;4493640;31;20127;-75
2023/09/22 13:26:09;;;;;;;7.85;2.78;;;;;;;30.66;46.24;97946.47;4492348;31;20107;-76
2023/09/22 13:28:37;;;;;;;9.82;3.03;;;;;;;30.59;45.72;97938.72;4490163;31;20117;-76
2023/09/22 13:31:05;;;;;;;12.18;2.60;;;;;;;30.34;46.03;97937.09;4496379;31;20124;-76
2023/09/22 13:33:35;;;;;;;10.73;2.45;;;;;;;30.39;46.46;97931.62;4507715;31;20083;-76
2023/09/22 13:36:02;;;;;;;8.82;2.97;;;;;;;30.53;46.75;97932.56;4495097;31;20797;-76
2023/09/22 13:38:30;;;;;;;10.18;2.67;;;;;;;30.40;44.30;97931.38;4483808;31;20116;-76
2023/09/22 13:40:59;;;;;;;10.05;2.62;;;;;;;30.55;46.59;97930.38;4482529;31;20134;-76
2023/09/22 13:43:28;;;;;;;6.55;2.40;;;;;;;30.66;46.65;97941.06;4480992;32;20142;-79
2023/09/22 13:46:00;;;;;;;9.85;2.92;;;;;;;30.36;46.83;97938.41;4483594;31;20108;-79
2023/09/22 13:48:32;;;;;;;10.85;3.08;;;;;;;30.33;47.21;97940.91;4481672;32;20100;-79
2023/09/22 13:51:00;;;;;;;11.32;2.90;;;;;;;30.27;46.27;97938.22;4480008;32;20092;-78
2023/09/22 13:53:28;;;;;;;14.50;3.17;;;;;;;30.10;47.02;97935.19;4475689;31;20474;-79
2023/09/22 13:55:56;;;;;;;26.30;3.35;;;;;;;29.94;47.91;97936.41;4479756;31;20219;-79
2023/09/22 13:58:27;;;;;;;6.53;2.28;;;;;;;29.85;47.87;97939.72;4482115;31;20104;-79
2023/09/22 14:00:55;;;;;;;9.75;3.37;;;;;;;30.35;47.02;97925.97;4481868;31;20122;-79
2023/09/22 14:03:22;;;;;;;8.43;2.45;;;;;;;30.28;45.63;97922.81;4479680;31;20116;-78
2023/09/22 14:05:50;;;;;;;12.27;2.40;;;;;;;29.79;47.12;97930.03;4480408;32;20115;-79
2023/09/22 14:08:18;;;;;;;5.93;2.35;;;;;;;29.59;47.54;97924.81;4484895;31;20109;-79
2023/09/22 14:10:45;;;;;;;7.50;2.30;;;;;;;29.77;48.17;97936.78;4483421;32;20139;-79
2023/09/22 14:13:13;;;;;;;6.37;2.45;;;;;;;30.04;48.76;97920.91;4486059;31;20083;-80
2023/09/22 14:15:42;;;;;;;12.05;2.67;;;;;;;30.13;47.19;97920.28;4483123;31;20133;-80
2023/09/22 14:18:11;;;;;;;11.95;2.78;;;;;;;30.01;46.93;97924.19;4485048;31;20108;-80
2023/09/22 14:20:41;;;;;;;9.00;2.47;;;;;;;29.86;47.59;97927.03;4485235;31;20148;-80
2023/09/22 14:23:09;;;;;;;13.25;3.05;;;;;;;29.71;48.19;97926.03;4485385;31;20420;-80
2023/09/22 14:25:37;;;;;;;11.50;2.65;;;;;;;29.46;48.48;97932.44;4486036;31;20152;-80
2023/09/22 14:28:05;;;;;;;11.02;2.22;;;;;;;29.47;48.55;97917.88;4485155;31;20119;-80
2023/09/22 14:30:35;;;;;;;10.02;2.60;;;;;;;29.53;48.63;97927.53;4485768;31;20639;-79
2023/09/22 14:33:03;;;;;;;16.52;3.92;;;;;;;29.48;49.35;97926.75;4478619;32;20134;-80
2023/09/22 14:35:32;;;;;;;7.25;2.55;;;;;;;29.67;48.53;97922.28;4483684;31;20446;-79
2023/09/22 14:38:00;;;;;;;13.00;3.15;;;;;;;29.55;48.40;97922.69;4482947;32;20351;-79
2023/09/22 14:40:28;;;;;;;12.60;2.83;;;;;;;29.32;48.98;97926.09;4485709;31;20552;-80
2023/09/22 14:42:58;;;;;;;9.07;2.78;;;;;;;29.39;48.54;97921.19;4485546;31;20160;-79
2023/09/22 14:45:27;;;;;;;12.18;2.97;;;;;;;29.70;48.55;97915.53;4486140;31;20072;-79
2023/09/22 14:47:55;;;;;;;9.65;2.78;;;;;;;30.07;47.81;97914.94;4489166;31;20128;-79
2023/09/22 14:50:23;;;;;;;9.43;2.22;;;;;;;30.28;45.32;97917.41;4485232;31;20119;-80
2023/09/22 14:52:51;;;;;;;14.23;3.35;;;;;;;30.20;45.80;97916.16;4482034;31;20462;-79
2023/09/22 14:55:20;;;;;;;9.02;2.95;;;;;;;30.14;46.00;97914.59;4476499;32;20096;-79
2023/09/22 14:57:47;;;;;;;13.25;3.95;;;;;;;30.36;46.60;97922.19;4483954;31;20176;-79
2023/09/22 15:00:14;;;;;;;10.13;2.92;;;;;;;30.33;45.13;97924.69;4486295;31;20131;-79
2023/09/22 15:02:45;;;;;;;10.70;2.53;;;;;;;30.29;45.69;97920.94;4479486;31;20152;-79
2023/09/22 15:05:16;;;;;;;9.27;2.85;;;;;;;30.46;45.59;97920.50;4485147;31;20092;-79
2023/09/22 15:07:48;;;;;;;7.90;2.95;;;;;;;30.40;45.92;97919.75;4478838;32;20097;-79
2023/09/22 15:10:15;;;;;;;15.98;3.10;;;;;;;30.34;46.10;97918.16;4484453;31;20089;-79
2023/09/22 15:12:44;;;;;;;6.28;2.00;;;;;;;30.09;45.97;97923.56;4489479;31;20091;-79
2023/09/22 15:15:12;;;;;;;6.53;2.28;;;;;;;30.09;44.80;97926.25;4498040;31;20087;-80
2023/09/22 15:17:40;;;;;;;9.00;1.98;;;;;;;29.76;44.06;97930.59;4494627;31;20443;-79
2023/09/22 15:20:07;;;;;;;6.45;2.33;;;;;;;29.51;44.55;97926.22;4499988;31;20164;-79
2023/09/22 15:22:35;;;;;;;11.12;2.08;;;;;;;29.31;44.80;97925.28;4493998;31;20164;-79
2023/09/22 15:25:03;;;;;;;5.57;2.12;;;;;;;29.06;45.84;97917.34;4494026;31;20133;-79
2023/09/22 15:27:31;;;;;;;7.72;2.30;;;;;;;28.82;46.33;97932.25;4500683;31;20096;-79
2023/09/22 15:29:59;;;;;;;8.98;2.10;;;;;;;28.54;46.60;97930.19;4500520;31;20114;-79
2023/09/22 15:32:26;;;;;;;9.40;2.78;;;;;;;28.39;47.21;97936.44;4499434;31;20107;-79
2023/09/22 15:34:54;;;;;;;10.73;2.33;;;;;;;28.25;47.78;97938.91;4499445;31;20092;-79
2023/09/22 15:37:22;;;;;;;7.45;2.33;;;;;;;28.13;47.70;97948.09;4499423;31;20550;-79
2023/09/22 15:39:50;;;;;;;5.62;2.75;;;;;;;28.17;47.60;97948.34;4499336;31;20483;-79
2023/09/22 15:42:17;;;;;;;9.27;2.17;;;;;;;28.22;47.49;97944.84;4499554;31;20462;-79
2023/09/22 15:44:46;;;;;;;11.98;2.33;;;;;;;28.21;47.47;97948.63;4499628;31;20091;-79
2023/09/22 15:47:14;;;;;;;7.57;2.35;;;;;;;28.29;47.86;97953.44;4499824;31;20115;-79
2023/09/22 15:49:41;;;;;;;5.68;1.70;;;;;;;28.07;47.43;97951.88;4500391;31;20084;-79
2023/09/22 15:52:09;;;;;;;8.75;2.45;;;;;;;28.11;47.79;97958.31;4501635;31;20513;-79
2023/09/22 15:54:37;;;;;;;7.78;2.03;;;;;;;27.99;48.68;97965.87;4486407;31;20115;-79
2023/09/22 15:57:04;;;;;;;10.20;2.50;;;;;;;27.97;48.71;97965.34;4485403;31;20153;-79
2023/09/22 15:59:35;;;;;;;6.15;2.08;;;;;;;27.82;49.22;97958.06;4485695;31;20140;-79
2023/09/22 16:02:05;;;;;;;8.30;3.03;;;;;;;27.65;49.67;97961.03;4485604;31;20542;-79
2023/09/22 16:04:34;;;;;;;6.53;1.98;;;;;;;27.51;50.12;97968.81;4485498;31;20437;-79
2023/09/22 16:07:02;;;;;;;7.25;2.45;;;;;;;27.34;50.55;97966.34;4485514;32;20167;-80
2023/09/22 16:09:32;;;;;;;10.43;2.50;;;;;;;27.24;51.44;97963.63;4485546;31;20122;-79
2023/09/22 16:12:00;;;;;;;8.05;2.30;;;;;;;27.10;51.80;97966.00;4485482;31;20110;-79
2023/09/22 16:14:27;;;;;;;11.38;2.17;;;;;;;27.01;52.33;97962.22;4485491;31;20084;-79
2023/09/22 16:16:56;;;;;;;6.43;2.42;;;;;;;26.97;52.37;97967.31;4470358;31;20170;-79
2023/09/22 16:19:25;;;;;;;10.75;2.45;;;;;;;26.76;53.26;97966.44;4468830;32;20119;-79
2023/09/22 16:21:52;;;;;;;9.65;2.15;;;;;;;26.67;53.79;97968.00;4469480;32;20180;-79
2023/09/22 16:24:20;;;;;;;10.05;1.90;;;;;;;26.56;54.20;97969.81;4469602;32;20519;-79
2023/09/22 16:26:48;;;;;;;10.52;2.40;;;;;;;26.48;54.41;97978.34;4469523;32;20089;-79
2023/09/22 16:29:20;;;;;;;9.15;2.40;;;;;;;26.41;54.72;97969.72;4469429;32;20166;-79
2023/09/22 16:31:48;;;;;;;7.85;2.17;;;;;;;26.30;55.40;97968.84;4469601;32;20451;-79
2023/09/22 16:34:16;;;;;;;7.15;2.28;;;;;;;26.12;55.76;97965.50;4469351;32;20454;-79
2023/09/22 16:36:44;;;;;;;7.07;2.30;;;;;;;26.08;55.91;97971.66;4469391;32;20092;-79
2023/09/22 16:39:12;;;;;;;10.30;2.70;;;;;;;25.98;56.42;97970.53;4469515;32;20123;-79
2023/09/22 16:41:39;;;;;;;11.27;2.53;;;;;;;25.79;57.22;97971.94;4469808;32;20082;-79
2023/09/22 16:44:07;;;;;;;9.70;2.33;;;;;;;25.67;57.80;97972.91;4468312;32;20127;-79
2023/09/22 16:46:35;;;;;;;7.93;2.40;;;;;;;25.56;58.18;97976.56;4469406;32;20736;-79
2023/09/22 16:49:04;;;;;;;5.72;2.00;;;;;;;25.49;58.58;97970.59;4469481;32;20085;-79
2023/09/22 16:51:31;;;;;;;8.40;3.35;;;;;;;25.33;59.09;97978.50;4469373;32;20172;-79
2023/09/22 16:53:59;;;;;;;10.98;2.67;;;;;;;25.19;59.70;97979.91;4480098;32;20085;-79
2023/09/22 16:56:28;;;;;;;16.90;4.40;;;;;;;25.11;59.97;97978.50;4484827;31;20441;-79
2023/09/22 16:58:56;;;;;;;13.68;2.75;;;;;;;24.96;60.53;97989.84;4485079;31;20124;-79
2023/09/22 17:01:24;;;;;;;10.13;2.67;;;;;;;24.86;60.74;97988.91;4485227;31;20135;-79
2023/09/22 17:03:51;;;;;;;12.25;2.33;;;;;;;24.74;61.50;97999.75;4485110;31;20127;-79
2023/09/22 17:06:20;;;;;;;16.80;2.72;;;;;;;24.57;61.97;97994.41;4484868;31;20127;-79
2023/09/22 17:08:48;;;;;;;11.20;2.65;;;;;;;24.51;62.34;97987.38;4485088;31;20765;-79
2023/09/22 17:11:16;;;;;;;11.07;2.22;;;;;;;24.45;62.57;97989.16;4484862;31;20121;-79
2023/09/22 17:13:44;;;;;;;13.52;2.95;;;;;;;24.36;62.92;97988.78;4485255;32;20133;-79